createdAt,value
2023-04-13T00:01:37.936Z,5.90
2023-04-13T00:04:09.989Z,5.90
2023-04-13T00:06:42.785Z,5.90
2023-04-13T00:09:16.219Z,5.90
2023-04-13T00:11:49.111Z,5.90
2023-04-13T00:14:20.852Z,5.90
2023-04-13T00:16:52.768Z,5.90
2023-04-13T00:19:25.713Z,6.00
2023-04-13T00:21:57.437Z,6.10
2023-04-13T00:24:29.281Z,6.10
2023-04-13T00:27:01.286Z,6.10
2023-04-13T00:29:33.129Z,6.00
2023-04-13T00:32:04.833Z,6.00
2023-04-13T00:34:36.564Z,6.00
2023-04-13T00:37:08.251Z,6.00
2023-04-13T00:39:40.372Z,6.10
2023-04-13T00:42:13.484Z,6.10
2023-04-13T00:44:45.431Z,6.20
2023-04-13T00:47:26.553Z,6.20
2023-04-13T00:50:01.807Z,6.20
2023-04-13T00:52:40.380Z,6.20
2023-04-13T00:55:12.612Z,6.20
2023-04-13T00:57:44.982Z,6.20
2023-04-13T01:00:17.618Z,6.20
2023-04-13T01:02:50.657Z,6.20
2023-04-13T01:05:23.033Z,6.10
2023-04-13T01:08:12.661Z,6.20
2023-04-13T01:11:06.946Z,6.20
2023-04-13T01:13:52.809Z,6.20
2023-04-13T01:16:30.576Z,6.20
2023-04-13T01:19:05.137Z,6.20
2023-04-13T01:21:39.136Z,6.20
2023-04-13T01:24:45.123Z,6.20
2023-04-13T01:27:47.019Z,6.10
2023-04-13T01:30:24.165Z,6.00
2023-04-13T01:32:58.116Z,5.90
2023-04-13T01:35:31.003Z,5.80
2023-04-13T01:38:03.829Z,5.70
2023-04-13T01:40:40.519Z,5.50
2023-04-13T01:43:12.806Z,5.50
2023-04-13T01:45:45.960Z,5.40
2023-04-13T01:48:46.809Z,5.30
2023-04-13T01:51:32.371Z,5.20
2023-04-13T01:54:13.648Z,5.20
2023-04-13T01:56:45.502Z,5.10
2023-04-13T01:59:17.524Z,5.10
2023-04-13T02:01:49.598Z,5.10
2023-04-13T02:04:21.464Z,5.10
2023-04-13T02:06:53.559Z,5.10
2023-04-13T02:09:25.301Z,5.10
2023-04-13T02:11:57.139Z,5.10
2023-04-13T02:14:28.909Z,5.00
2023-04-13T02:17:00.633Z,5.00
2023-04-13T02:19:32.417Z,5.00
2023-04-13T02:22:04.326Z,5.00
2023-04-13T02:24:36.078Z,5.10
2023-04-13T02:27:07.794Z,5.10
2023-04-13T02:29:39.580Z,5.10
2023-04-13T02:32:11.440Z,5.10
2023-04-13T02:34:43.292Z,5.10
2023-04-13T02:37:16.057Z,5.00
2023-04-13T02:39:47.856Z,5.00
2023-04-13T02:42:19.582Z,5.00
2023-04-13T02:44:51.379Z,4.90
2023-04-13T02:47:23.185Z,4.90
2023-04-13T02:49:55.009Z,4.80
2023-04-13T02:52:27.177Z,4.80
2023-04-13T02:54:58.953Z,4.70
2023-04-13T02:57:31.720Z,4.60
2023-04-13T03:00:10.124Z,4.60
2023-04-13T03:02:42.602Z,4.60
2023-04-13T03:05:14.569Z,4.50
2023-04-13T03:07:46.354Z,4.50
2023-04-13T03:10:18.884Z,4.50
2023-04-13T03:12:50.717Z,4.40
2023-04-13T03:15:23.039Z,4.50
2023-04-13T03:17:54.883Z,4.50
2023-04-13T03:20:29.127Z,4.50
2023-04-13T03:23:01.920Z,4.60
2023-04-13T03:25:34.143Z,4.60
2023-04-13T03:28:06.101Z,4.60
2023-04-13T03:30:38.008Z,4.60
2023-04-13T03:33:09.823Z,4.60
2023-04-13T03:35:42.598Z,4.60
2023-04-13T03:38:14.501Z,4.60
2023-04-13T03:40:46.359Z,4.60
2023-04-13T03:43:18.072Z,4.60
2023-04-13T03:45:49.819Z,4.70
2023-04-13T03:48:21.685Z,4.80
2023-04-13T03:50:53.372Z,4.80
2023-04-13T03:53:25.245Z,4.90
2023-04-13T03:55:57.098Z,4.80
2023-04-13T03:58:28.936Z,5.00
2023-04-13T04:01:00.640Z,5.00
2023-04-13T04:03:32.520Z,5.00
2023-04-13T04:06:05.062Z,5.00
2023-04-13T04:08:36.966Z,5.00
2023-04-13T04:11:08.636Z,5.10
2023-04-13T04:13:40.435Z,5.20
2023-04-13T04:16:12.425Z,5.20
2023-04-13T04:18:44.662Z,5.20
2023-04-13T04:21:16.569Z,5.20
2023-04-13T04:23:48.508Z,5.30
2023-04-13T04:26:25.665Z,5.50
2023-04-13T04:29:03.972Z,5.50
2023-04-13T04:31:43.450Z,5.60
2023-04-13T04:34:16.762Z,5.60
2023-04-13T04:36:52.500Z,5.70
2023-04-13T04:39:26.507Z,5.70
2023-04-13T04:42:03.042Z,5.70
2023-04-13T04:44:34.841Z,5.70
2023-04-13T04:47:06.777Z,5.80
2023-04-13T04:49:38.750Z,5.80
2023-04-13T04:52:12.574Z,5.80
2023-04-13T04:54:44.555Z,5.80
2023-04-13T04:57:17.012Z,5.80
2023-04-13T04:59:49.633Z,5.80
2023-04-13T05:02:21.469Z,5.80
2023-04-13T05:04:53.742Z,5.80
2023-04-13T05:07:25.757Z,5.80
2023-04-13T05:09:57.499Z,5.90
2023-04-13T05:12:29.279Z,5.80
2023-04-13T05:15:01.113Z,5.90
2023-04-13T05:17:32.963Z,5.90
2023-04-13T05:20:07.103Z,5.90
2023-04-13T05:22:38.960Z,5.90
2023-04-13T05:25:11.134Z,5.90
2023-04-13T05:27:42.960Z,5.90
2023-04-13T05:30:14.840Z,5.80
2023-04-13T05:32:46.812Z,5.70
2023-04-13T05:35:19.050Z,5.60
2023-04-13T05:37:50.993Z,5.60
2023-04-13T05:40:22.879Z,5.60
2023-04-13T05:42:54.653Z,5.70
2023-04-13T05:45:27.382Z,5.70
2023-04-13T05:47:59.183Z,5.80
2023-04-13T05:50:31.144Z,5.80
2023-04-13T05:53:02.948Z,5.90
2023-04-13T05:55:34.677Z,6.00
2023-04-13T05:58:06.498Z,6.00
2023-04-13T06:00:38.848Z,6.00
2023-04-13T06:03:11.301Z,6.00
2023-04-13T06:05:43.605Z,6.00
2023-04-13T06:08:15.477Z,6.00
2023-04-13T06:10:48.356Z,6.10
2023-04-13T06:13:20.265Z,6.20
2023-04-13T06:15:52.945Z,6.20
2023-04-13T06:18:28.407Z,6.30
2023-04-13T06:21:00.123Z,6.30
2023-04-13T06:23:32.181Z,6.40
2023-04-13T06:26:05.909Z,6.40
2023-04-13T06:28:37.955Z,6.40
2023-04-13T06:31:13.387Z,6.50
2023-04-13T06:33:45.537Z,6.50
2023-04-13T06:36:17.881Z,6.50
2023-04-13T06:38:49.737Z,6.50
2023-04-13T06:41:21.456Z,6.50
2023-04-13T06:43:53.135Z,6.50
2023-04-13T06:46:24.943Z,6.60
2023-04-13T06:48:57.048Z,6.70
2023-04-13T06:51:28.880Z,6.80
2023-04-13T06:54:01.242Z,6.80
2023-04-13T06:56:32.963Z,6.80
2023-04-13T06:59:05.202Z,6.80
2023-04-13T07:01:38.146Z,6.80
2023-04-13T07:04:10.153Z,6.80
2023-04-13T07:06:42.224Z,7.00
2023-04-13T07:09:14.485Z,7.10
2023-04-13T07:11:46.270Z,7.20
2023-04-13T07:14:17.984Z,7.10
2023-04-13T07:16:49.701Z,7.00
2023-04-13T07:19:23.732Z,7.00
2023-04-13T07:21:55.479Z,7.00
2023-04-13T07:24:29.874Z,7.10
2023-04-13T07:27:02.859Z,7.10
2023-04-13T07:29:35.180Z,7.20
2023-04-13T07:32:07.411Z,7.30
2023-04-13T07:34:39.295Z,7.20
2023-04-13T07:37:11.203Z,7.10
2023-04-13T07:39:43.332Z,7.10
2023-04-13T07:42:15.145Z,7.00
2023-04-13T07:44:46.956Z,7.00
2023-04-13T07:47:18.913Z,7.00
2023-04-13T07:49:51.270Z,7.00
2023-04-13T07:52:23.137Z,7.20
2023-04-13T07:54:54.986Z,7.20
2023-04-13T07:57:27.559Z,7.20
2023-04-13T07:59:59.444Z,7.30
2023-04-13T08:02:31.717Z,7.60
2023-04-13T08:05:03.997Z,7.60
2023-04-13T08:07:36.240Z,7.60
2023-04-13T08:10:08.776Z,7.50
2023-04-13T08:12:40.634Z,7.60
2023-04-13T08:15:12.386Z,7.70
2023-04-13T08:17:44.640Z,7.90
2023-04-13T08:20:16.548Z,8.00
2023-04-13T08:22:48.233Z,8.10
2023-04-13T08:25:20.186Z,8.30
2023-04-13T08:27:51.976Z,8.30
2023-04-13T08:30:23.775Z,8.10
2023-04-13T08:32:55.795Z,7.70
2023-04-13T08:35:27.936Z,7.50
2023-04-13T08:37:59.965Z,7.40
2023-04-13T08:40:39.413Z,7.30
2023-04-13T08:43:11.484Z,7.30
2023-04-13T08:45:43.717Z,7.30
2023-04-13T08:48:18.627Z,7.30
2023-04-13T08:50:53.438Z,7.30
2023-04-13T08:53:25.425Z,7.30
2023-04-13T08:56:00.763Z,7.40
2023-04-13T08:58:35.237Z,7.60
2023-04-13T09:01:07.541Z,7.60
2023-04-13T09:03:51.187Z,7.60
2023-04-13T09:06:26.899Z,7.50
2023-04-13T09:09:00.119Z,7.50
2023-04-13T09:11:32.658Z,7.50
2023-04-13T09:14:04.597Z,7.50
2023-04-13T09:16:41.192Z,7.60
2023-04-13T09:19:13.848Z,7.60
2023-04-13T09:21:45.816Z,7.70
2023-04-13T09:24:17.608Z,8.00
2023-04-13T09:26:50.259Z,8.20
2023-04-13T09:29:22.312Z,8.80
2023-04-13T09:31:54.196Z,9.40
2023-04-13T09:34:28.122Z,9.60
2023-04-13T09:37:11.174Z,9.60
2023-04-13T09:39:43.081Z,9.40
2023-04-13T09:42:18.102Z,9.40
2023-04-13T09:44:59.146Z,9.60
2023-04-13T09:47:41.083Z,9.80
2023-04-13T09:50:22.457Z,9.70
2023-04-13T09:53:07.422Z,9.50
2023-04-13T09:55:40.383Z,9.00
2023-04-13T09:58:18.065Z,8.30
2023-04-13T10:00:50.188Z,7.90
2023-04-13T10:03:23.646Z,8.00
2023-04-13T10:05:59.978Z,8.50
2023-04-13T10:08:38.439Z,8.70
2023-04-13T10:11:15.363Z,8.70
2023-04-13T10:13:56.704Z,8.60
2023-04-13T10:16:36.537Z,8.60
2023-04-13T10:19:20.006Z,8.60
2023-04-13T10:21:52.644Z,8.70
2023-04-13T10:24:25.469Z,8.80
2023-04-13T10:27:00.306Z,8.90
2023-04-13T10:29:34.082Z,8.90
2023-04-13T10:32:06.845Z,9.00
2023-04-13T10:34:39.684Z,9.20
2023-04-13T10:37:19.788Z,9.50
2023-04-13T10:40:09.020Z,9.70
2023-04-13T10:45:34.767Z,10.30
2023-04-13T10:48:07.648Z,10.20
2023-04-13T10:50:39.725Z,10.20
2023-04-13T10:53:11.482Z,10.10
2023-04-13T10:55:43.556Z,10.10
2023-04-13T10:58:17.495Z,10.60
2023-04-13T11:00:54.314Z,11.30
2023-04-13T11:03:29.529Z,11.30
2023-04-13T11:06:01.381Z,11.00
2023-04-13T11:08:35.011Z,10.80
2023-04-13T11:11:06.760Z,10.60
2023-04-13T11:13:48.905Z,10.40
2023-04-13T11:16:20.906Z,10.20
2023-04-13T11:19:05.447Z,10.00
2023-04-13T11:21:37.219Z,9.70
2023-04-13T11:24:10.093Z,9.90
2023-04-13T11:26:43.250Z,9.90
2023-04-13T11:29:19.113Z,9.90
2023-04-13T11:31:51.226Z,10.00
2023-04-13T11:34:29.058Z,9.90
2023-04-13T11:37:03.218Z,10.00
2023-04-13T11:39:36.602Z,9.90
2023-04-13T11:42:08.449Z,9.40
2023-04-13T11:44:40.386Z,8.80
2023-04-13T11:47:15.755Z,8.70
2023-04-13T11:49:48.133Z,8.70
2023-04-13T11:52:20.210Z,8.70
2023-04-13T11:54:53.452Z,8.80
2023-04-13T11:57:25.545Z,9.20
2023-04-13T11:59:57.753Z,9.60
2023-04-13T12:02:33.700Z,10.10
2023-04-13T12:05:07.660Z,10.30
2023-04-13T12:07:43.071Z,10.40
2023-04-13T12:10:28.809Z,10.50
2023-04-13T12:16:06.212Z,10.70
2023-04-13T12:18:47.281Z,10.50
2023-04-13T12:21:20.884Z,10.40
2023-04-13T12:23:58.624Z,10.20
2023-04-13T12:29:11.894Z,10.20
2023-04-13T12:31:45.491Z,10.30
2023-04-13T12:34:17.407Z,10.40
2023-04-13T12:36:49.116Z,10.50
2023-04-13T12:39:21.328Z,10.70
2023-04-13T12:41:53.044Z,10.70
2023-04-13T12:44:24.930Z,10.60
2023-04-13T12:46:56.673Z,10.70
2023-04-13T12:49:28.578Z,10.80
2023-04-13T12:52:00.384Z,10.70
2023-04-13T12:54:32.148Z,11.00
2023-04-13T12:57:03.987Z,11.20
2023-04-13T12:59:36.002Z,11.20
2023-04-13T13:02:07.897Z,11.10
2023-04-13T13:04:39.746Z,11.10
2023-04-13T13:07:11.631Z,11.00
2023-04-13T13:09:43.498Z,10.70
2023-04-13T13:12:15.881Z,10.50
2023-04-13T13:14:47.736Z,10.40
2023-04-13T13:17:19.532Z,10.50
2023-04-13T13:19:51.309Z,10.50
2023-04-13T13:22:23.155Z,10.70
2023-04-13T13:24:55.056Z,11.00
2023-04-13T13:30:03.454Z,11.20
2023-04-13T13:32:35.540Z,11.10
2023-04-13T13:35:10.762Z,11.00
2023-04-13T13:37:42.735Z,10.80
2023-04-13T13:40:14.499Z,10.50
2023-04-13T13:42:51.967Z,10.50
2023-04-13T13:45:24.626Z,10.60
2023-04-13T13:47:58.358Z,10.80
2023-04-13T13:50:30.149Z,10.80
2023-04-13T13:53:03.686Z,10.80
2023-04-13T13:55:36.358Z,10.80
2023-04-13T13:58:08.209Z,11.20
2023-04-13T14:00:40.010Z,11.30
2023-04-13T14:03:14.953Z,11.50
2023-04-13T14:05:46.830Z,11.40
2023-04-13T14:08:18.762Z,11.10
2023-04-13T14:10:50.674Z,11.00
2023-04-13T14:13:23.249Z,10.60
2023-04-13T14:15:55.755Z,10.30
2023-04-13T14:18:27.693Z,10.00
2023-04-13T14:20:59.556Z,10.10
2023-04-13T14:23:32.068Z,10.00
2023-04-13T14:26:04.405Z,10.00
2023-04-13T14:28:36.796Z,10.10
2023-04-13T14:31:09.650Z,10.00
2023-04-13T14:33:44.397Z,9.90
2023-04-13T14:36:16.985Z,9.90
2023-04-13T14:38:51.576Z,9.70
2023-04-13T14:41:23.341Z,9.70
2023-04-13T14:43:55.098Z,9.80
2023-04-13T14:46:30.056Z,9.90
2023-04-13T14:49:01.958Z,10.00
2023-04-13T14:51:34.412Z,10.20
2023-04-13T14:54:06.335Z,10.40
2023-04-13T14:56:38.132Z,10.70
2023-04-13T14:59:10.328Z,10.70
2023-04-13T15:01:42.314Z,10.70
2023-04-13T15:04:14.196Z,10.90
2023-04-13T15:06:47.607Z,10.80
2023-04-13T15:09:19.450Z,10.60
2023-04-13T15:11:51.916Z,10.60
2023-04-13T15:14:23.647Z,10.70
2023-04-13T15:16:55.707Z,10.50
2023-04-13T15:19:28.447Z,10.40
2023-04-13T15:22:00.481Z,10.30
2023-04-13T15:24:32.325Z,10.20
2023-04-13T15:27:04.236Z,10.00
2023-04-13T15:29:35.967Z,10.00
2023-04-13T15:32:08.291Z,10.00
2023-04-13T15:34:40.620Z,10.00
2023-04-13T15:37:12.544Z,10.00
2023-04-13T15:39:44.325Z,10.00
2023-04-13T15:42:16.115Z,9.80
2023-04-13T15:44:48.426Z,9.90
2023-04-13T15:47:20.269Z,9.90
2023-04-13T15:49:51.984Z,10.00
2023-04-13T15:52:23.744Z,10.10
2023-04-13T15:54:55.821Z,10.00
2023-04-13T15:57:27.666Z,9.90
2023-04-13T15:59:59.536Z,9.80
2023-04-13T16:02:31.598Z,9.70
2023-04-13T16:05:03.704Z,9.90
2023-04-13T16:07:35.531Z,9.90
2023-04-13T16:10:14.052Z,9.70
2023-04-13T16:12:45.957Z,9.50
2023-04-13T16:15:19.298Z,9.50
2023-04-13T16:17:51.167Z,9.50
2023-04-13T16:20:23.487Z,9.40
2023-04-13T16:22:59.267Z,9.50
2023-04-13T16:25:32.153Z,9.40
2023-04-13T16:28:03.972Z,9.50
2023-04-13T16:30:35.749Z,9.50
2023-04-13T16:33:07.522Z,9.40
2023-04-13T16:35:39.540Z,9.30
2023-04-13T16:38:11.626Z,9.30
2023-04-13T16:40:43.356Z,9.30
2023-04-13T16:43:16.488Z,9.40
2023-04-13T16:45:48.269Z,9.30
2023-04-13T16:48:20.754Z,9.20
2023-04-13T16:51:03.880Z,9.20
2023-04-13T16:53:35.638Z,9.00
2023-04-13T16:56:07.569Z,8.90
2023-04-13T16:58:39.450Z,8.80
2023-04-13T17:01:11.319Z,8.80
2023-04-13T17:03:43.242Z,8.80
2023-04-13T17:06:15.113Z,8.80
2023-04-13T17:08:47.030Z,8.80
2023-04-13T17:11:18.838Z,8.70
2023-04-13T17:13:51.428Z,8.70
2023-04-13T17:16:24.508Z,8.80
2023-04-13T17:18:56.711Z,8.70
2023-04-13T17:21:29.078Z,8.70
2023-04-13T17:24:01.001Z,8.60
2023-04-13T17:26:32.725Z,8.40
2023-04-13T17:29:04.527Z,8.30
2023-04-13T17:31:36.416Z,8.30
2023-04-13T17:34:09.508Z,8.20
2023-04-13T17:36:41.343Z,8.10
2023-04-13T17:39:13.067Z,7.90
2023-04-13T17:41:44.807Z,7.90
2023-04-13T17:44:16.592Z,7.80
2023-04-13T17:46:50.109Z,7.80
2023-04-13T17:49:22.186Z,7.70
2023-04-13T17:51:54.033Z,7.70
2023-04-13T17:54:26.963Z,7.70
2023-04-13T17:56:58.754Z,7.70
2023-04-13T17:59:30.674Z,7.60
2023-04-13T18:02:02.753Z,7.60
2023-04-13T18:04:34.846Z,7.60
2023-04-13T18:07:06.700Z,7.60
2023-04-13T18:09:38.411Z,7.60
2023-04-13T18:12:10.165Z,7.60
2023-04-13T18:14:41.908Z,7.60
2023-04-13T18:17:13.692Z,7.50
2023-04-13T18:19:45.455Z,7.30
2023-04-13T18:22:17.736Z,7.20
2023-04-13T18:24:49.449Z,7.10
2023-04-13T18:27:23.111Z,6.90
2023-04-13T18:29:55.617Z,6.90
2023-04-13T18:32:27.569Z,6.90
2023-04-13T18:34:59.391Z,6.70
2023-04-13T18:37:31.225Z,6.70
2023-04-13T18:40:04.486Z,6.60
2023-04-13T18:42:38.584Z,6.70
2023-04-13T18:45:10.820Z,6.70
2023-04-13T18:47:42.937Z,6.70
2023-04-13T18:50:15.043Z,6.60
2023-04-13T18:52:46.837Z,6.60
2023-04-13T18:55:19.269Z,6.70
2023-04-13T18:57:51.748Z,6.60
2023-04-13T19:00:23.915Z,6.70
2023-04-13T19:02:57.631Z,6.70
2023-04-13T19:05:30.375Z,6.70
2023-04-13T19:08:06.116Z,6.80
2023-04-13T19:10:37.927Z,6.70
2023-04-13T19:13:09.764Z,6.80
2023-04-13T19:15:41.776Z,6.70
2023-04-13T19:18:13.603Z,6.70
2023-04-13T19:20:45.437Z,6.80
2023-04-13T19:23:17.148Z,6.80
2023-04-13T19:25:48.922Z,6.80
2023-04-13T19:28:20.976Z,6.80
2023-04-13T19:30:52.805Z,6.80
2023-04-13T19:33:24.628Z,6.80
2023-04-13T19:35:56.370Z,6.70
2023-04-13T19:38:28.128Z,6.70
2023-04-13T19:40:59.884Z,6.70
2023-04-13T19:43:31.575Z,6.70
2023-04-13T19:46:03.373Z,6.60
2023-04-13T19:48:35.252Z,6.60
2023-04-13T19:51:06.990Z,6.60
2023-04-13T19:53:38.723Z,6.50
2023-04-13T19:56:10.935Z,6.40
2023-04-13T19:58:42.750Z,6.30
2023-04-13T20:01:16.097Z,6.20
2023-04-13T20:03:48.040Z,6.20
2023-04-13T20:06:19.962Z,6.20
2023-04-13T20:08:51.640Z,6.10
2023-04-13T20:11:23.418Z,6.10
2023-04-13T20:13:55.248Z,6.10
2023-04-13T20:16:27.343Z,6.10
2023-04-13T20:18:59.245Z,6.10
2023-04-13T20:21:32.928Z,6.10
2023-04-13T20:24:04.735Z,6.10
2023-04-13T20:26:36.643Z,6.10
2023-04-13T20:29:08.671Z,6.00
2023-04-13T20:31:40.847Z,5.90
2023-04-13T20:34:13.521Z,5.90
2023-04-13T20:36:46.541Z,5.90
2023-04-13T20:39:22.059Z,5.80
2023-04-13T20:41:57.012Z,5.80
2023-04-13T20:44:29.251Z,5.80
2023-04-13T20:47:02.001Z,5.80
2023-04-13T20:49:34.409Z,5.80
2023-04-13T20:52:07.150Z,5.90
2023-04-13T20:54:38.862Z,5.90
2023-04-13T20:57:10.736Z,5.90
2023-04-13T20:59:42.585Z,5.80
2023-04-13T21:02:17.399Z,5.80
2023-04-13T21:04:49.213Z,5.80
2023-04-13T21:07:22.218Z,5.80
2023-04-13T21:09:54.007Z,5.80
2023-04-13T21:12:26.579Z,5.80
2023-04-13T21:14:58.330Z,5.80
2023-04-13T21:17:33.229Z,5.80
2023-04-13T21:20:08.710Z,5.80
2023-04-13T21:22:40.603Z,5.80
2023-04-13T21:25:12.443Z,5.80
2023-04-13T21:27:44.169Z,5.90
2023-04-13T21:30:16.008Z,5.90
2023-04-13T21:32:47.890Z,5.90
2023-04-13T21:35:19.644Z,6.00
2023-04-13T21:37:51.398Z,6.00
2023-04-13T21:40:24.692Z,6.10
2023-04-13T21:42:56.423Z,6.10
2023-04-13T21:45:28.168Z,6.10
2023-04-13T21:48:00.245Z,6.20
2023-04-13T21:50:32.030Z,6.20
2023-04-13T21:53:03.864Z,6.30
2023-04-13T21:55:35.858Z,6.30
2023-04-13T21:58:07.692Z,6.30
2023-04-13T22:00:39.500Z,6.30
2023-04-13T22:03:14.378Z,6.30
2023-04-13T22:05:46.385Z,6.30
2023-04-13T22:08:18.120Z,6.20
2023-04-13T22:10:49.964Z,6.20
2023-04-13T22:13:21.778Z,6.20
2023-04-13T22:15:53.794Z,6.10
2023-04-13T22:18:26.688Z,6.10
2023-04-13T22:20:59.834Z,6.10
2023-04-13T22:23:31.546Z,6.10
2023-04-13T22:26:03.536Z,6.10
2023-04-13T22:28:35.323Z,6.10
2023-04-13T22:31:08.461Z,6.10
2023-04-13T22:33:40.788Z,6.10
2023-04-13T22:36:20.592Z,6.20
2023-04-13T22:38:52.773Z,6.20
2023-04-13T22:41:24.575Z,6.30
2023-04-13T22:43:56.767Z,6.30
2023-04-13T22:46:28.593Z,6.20
2023-04-13T22:49:02.845Z,6.20
2023-04-13T22:51:40.673Z,6.20
2023-04-13T22:54:12.475Z,6.20
2023-04-13T22:56:44.186Z,6.10
2023-04-13T22:59:16.551Z,6.10
2023-04-13T23:01:48.462Z,6.10
2023-04-13T23:04:20.451Z,6.10
2023-04-13T23:06:52.346Z,6.10
2023-04-13T23:09:24.989Z,6.10
2023-04-13T23:11:56.903Z,6.10
2023-04-13T23:14:28.773Z,6.10
2023-04-13T23:17:00.540Z,6.00
2023-04-13T23:19:32.346Z,6.00
2023-04-13T23:22:04.041Z,6.00
2023-04-13T23:24:35.992Z,6.00
2023-04-13T23:27:07.662Z,6.10
2023-04-13T23:29:45.361Z,6.10
2023-04-13T23:32:17.444Z,6.10
2023-04-13T23:34:50.823Z,6.10
2023-04-13T23:37:22.670Z,6.10
2023-04-13T23:39:54.487Z,6.10
2023-04-13T23:42:26.329Z,6.10
2023-04-13T23:44:58.041Z,6.10
2023-04-13T23:47:30.323Z,6.10
2023-04-13T23:50:02.698Z,6.10
2023-04-13T23:52:34.503Z,6.10
2023-04-13T23:55:06.493Z,6.00
2023-04-13T23:57:38.215Z,6.10
